createdAt,value
2023-11-23T00:01:53.428Z,72.97
2023-11-23T00:04:55.121Z,74.05
2023-11-23T00:07:56.869Z,73.58
2023-11-23T00:10:58.515Z,73.29
2023-11-23T00:14:01.554Z,73.45
2023-11-23T00:17:03.372Z,73.81
2023-11-23T00:20:06.085Z,73.56
2023-11-23T00:23:07.748Z,73.40
2023-11-23T00:26:09.392Z,74.16
2023-11-23T00:29:12.409Z,74.25
2023-11-23T00:32:14.059Z,74.09
2023-11-23T00:35:15.906Z,73.54
2023-11-23T00:38:17.547Z,74.13
2023-11-23T00:41:19.202Z,74.92
2023-11-23T00:44:22.236Z,74.58
2023-11-23T00:47:24.029Z,74.70
2023-11-23T00:50:25.776Z,74.73
2023-11-23T00:53:27.404Z,74.75
2023-11-23T00:56:29.055Z,74.96
2023-11-23T00:59:32.149Z,74.69
2023-11-23T01:02:34.062Z,74.94
2023-11-23T01:05:35.836Z,75.36
2023-11-23T01:08:37.603Z,74.51
2023-11-23T01:11:39.366Z,74.41
2023-11-23T01:14:42.432Z,74.07
2023-11-23T01:17:44.437Z,74.60
2023-11-23T01:20:46.219Z,74.80
2023-11-23T01:23:47.863Z,75.39
2023-11-23T01:26:49.532Z,75.57
2023-11-23T01:29:52.597Z,75.01
2023-11-23T01:32:54.429Z,75.37
2023-11-23T01:35:56.229Z,75.00
2023-11-23T01:38:57.922Z,75.94
2023-11-23T01:41:59.615Z,75.16
2023-11-23T01:45:02.758Z,75.29
2023-11-23T01:48:05.488Z,76.09
2023-11-23T01:51:08.316Z,76.31
2023-11-23T01:54:10.062Z,76.18
2023-11-23T01:57:12.576Z,76.43
2023-11-23T02:00:15.962Z,76.06
2023-11-23T02:03:18.908Z,76.30
2023-11-23T02:06:20.591Z,76.41
2023-11-23T02:09:22.476Z,77.18
2023-11-23T02:12:24.413Z,76.50
2023-11-23T02:15:27.477Z,77.03
2023-11-23T02:18:29.339Z,77.41
2023-11-23T02:21:31.355Z,77.76
2023-11-23T02:24:34.359Z,76.92
2023-11-23T02:27:36.089Z,77.02
2023-11-23T02:30:37.819Z,78.26
2023-11-23T02:33:39.650Z,78.05
2023-11-23T02:36:41.338Z,77.44
2023-11-23T02:39:44.401Z,77.58
2023-11-23T02:42:46.742Z,77.58
2023-11-23T02:45:48.587Z,78.02
2023-11-23T02:48:50.250Z,77.61
2023-11-23T02:51:51.929Z,77.82
2023-11-23T02:54:55.025Z,78.01
2023-11-23T02:57:56.684Z,77.14
2023-11-23T03:00:58.321Z,77.08
2023-11-23T03:04:00.136Z,76.63
2023-11-23T03:07:01.926Z,77.38
2023-11-23T03:10:05.700Z,77.34
2023-11-23T03:13:07.731Z,77.90
2023-11-23T03:16:09.661Z,77.63
2023-11-23T03:19:11.408Z,78.17
2023-11-23T03:22:13.134Z,77.78
2023-11-23T03:25:16.291Z,77.98
2023-11-23T03:28:17.951Z,77.88
2023-11-23T03:31:19.574Z,77.47
2023-11-23T03:34:21.546Z,77.10
2023-11-23T03:37:23.238Z,76.98
2023-11-23T03:40:26.245Z,77.76
2023-11-23T03:43:27.894Z,77.83
2023-11-23T03:46:29.529Z,77.87
2023-11-23T03:49:31.212Z,76.88
2023-11-23T03:52:32.850Z,76.95
2023-11-23T03:55:35.856Z,77.12
2023-11-23T03:58:37.507Z,76.99
2023-11-23T04:01:44.626Z,77.30
2023-11-23T04:04:46.326Z,77.23
2023-11-23T04:07:47.966Z,77.40
2023-11-23T04:10:50.988Z,78.07
2023-11-23T04:13:52.645Z,77.79
2023-11-23T04:16:54.342Z,77.83
2023-11-23T04:19:56.045Z,78.34
2023-11-23T04:22:57.736Z,77.46
2023-11-23T04:26:00.774Z,76.88
2023-11-23T04:29:02.477Z,77.24
2023-11-23T04:32:04.770Z,76.64
2023-11-23T04:35:06.933Z,76.77
2023-11-23T04:38:08.598Z,76.79
2023-11-23T04:41:11.577Z,76.48
2023-11-23T04:44:13.245Z,76.65
2023-11-23T04:47:14.912Z,76.67
2023-11-23T04:50:18.678Z,76.95
2023-11-23T04:53:21.639Z,78.32
2023-11-23T04:56:24.898Z,77.96
2023-11-23T04:59:26.575Z,78.63
2023-11-23T05:02:28.281Z,78.78
2023-11-23T05:05:29.960Z,78.07
2023-11-23T05:08:31.620Z,78.24
2023-11-23T05:11:34.616Z,79.19
2023-11-23T05:14:36.308Z,78.76
2023-11-23T05:17:38.430Z,78.28
2023-11-23T05:20:40.068Z,78.72
2023-11-23T05:23:41.714Z,78.81
2023-11-23T05:26:44.720Z,78.49
2023-11-23T05:29:48.949Z,77.99
2023-11-23T05:32:52.045Z,78.27
2023-11-23T05:35:53.819Z,78.23
2023-11-23T05:38:55.596Z,77.70
2023-11-23T05:41:58.742Z,77.56
2023-11-23T05:45:00.469Z,77.92
2023-11-23T05:48:02.338Z,78.44
2023-11-23T05:51:04.551Z,78.30
2023-11-23T05:54:06.686Z,78.14
2023-11-23T05:57:09.728Z,78.33
2023-11-23T06:00:12.726Z,78.10
2023-11-23T06:03:14.514Z,77.90
2023-11-23T06:06:19.776Z,77.22
2023-11-23T06:09:21.603Z,76.55
2023-11-23T06:12:24.650Z,76.67
2023-11-23T06:15:26.409Z,76.78
2023-11-23T06:18:28.202Z,76.77
2023-11-23T06:21:29.878Z,76.81
2023-11-23T06:24:31.573Z,77.20
2023-11-23T06:27:34.567Z,77.14
2023-11-23T06:30:36.244Z,76.73
2023-11-23T06:33:37.890Z,76.58
2023-11-23T06:36:41.614Z,76.51
2023-11-23T06:39:44.974Z,77.13
2023-11-23T06:42:47.967Z,76.83
2023-11-23T06:45:49.670Z,76.70
2023-11-23T06:48:51.420Z,76.73
2023-11-23T06:51:53.091Z,76.30
2023-11-23T06:54:54.768Z,76.48
2023-11-23T06:57:57.801Z,76.41
2023-11-23T07:01:02.473Z,76.99
2023-11-23T07:04:04.547Z,76.20
2023-11-23T07:07:06.227Z,76.06
2023-11-23T07:10:08.525Z,75.39
2023-11-23T07:13:11.564Z,75.47
2023-11-23T07:16:13.420Z,75.50
2023-11-23T07:19:15.056Z,75.19
2023-11-23T07:22:16.725Z,75.44
2023-11-23T07:25:18.427Z,75.75
2023-11-23T07:28:21.549Z,75.52
2023-11-23T07:31:23.198Z,74.91
2023-11-23T07:34:24.854Z,74.63
2023-11-23T07:37:26.526Z,74.48
2023-11-23T07:40:28.200Z,74.55
2023-11-23T07:43:31.410Z,73.79
2023-11-23T07:46:33.149Z,73.37
2023-11-23T07:49:34.820Z,74.01
2023-11-23T07:52:36.501Z,73.31
2023-11-23T07:55:38.334Z,73.04
2023-11-23T07:58:43.433Z,72.97
2023-11-23T08:01:45.180Z,73.37
2023-11-23T08:04:46.860Z,73.68
2023-11-23T08:07:48.718Z,73.02
2023-11-23T08:10:50.385Z,72.58
2023-11-23T08:13:53.422Z,72.59
2023-11-23T08:16:55.101Z,72.05
2023-11-23T08:19:56.761Z,71.22
2023-11-23T08:22:58.507Z,71.36
2023-11-23T08:26:00.213Z,71.34
2023-11-23T08:29:03.209Z,71.25
2023-11-23T08:32:05.763Z,71.08
2023-11-23T08:35:07.965Z,70.79
2023-11-23T08:38:09.649Z,70.81
2023-11-23T08:41:11.301Z,71.72
2023-11-23T08:44:14.367Z,70.97
2023-11-23T08:47:16.035Z,71.25
2023-11-23T08:50:17.679Z,70.73
2023-11-23T08:53:19.321Z,70.50
2023-11-23T08:56:21.075Z,70.67
2023-11-23T08:59:24.081Z,70.22
2023-11-23T09:02:25.828Z,70.11
2023-11-23T09:05:27.658Z,70.36
2023-11-23T09:08:29.424Z,70.02
2023-11-23T09:11:31.050Z,70.20
2023-11-23T09:14:42.918Z,69.78
2023-11-23T09:17:50.646Z,69.06
2023-11-23T09:20:52.620Z,68.95
2023-11-23T09:23:54.323Z,68.48
2023-11-23T09:26:55.987Z,69.52
2023-11-23T09:29:59.087Z,68.68
2023-11-23T09:33:00.923Z,68.77
2023-11-23T09:36:02.696Z,68.91
2023-11-23T09:39:04.447Z,68.23
2023-11-23T09:42:07.707Z,67.96
2023-11-23T09:45:12.799Z,68.20
2023-11-23T09:48:16.385Z,67.94
2023-11-23T09:51:18.256Z,68.07
2023-11-23T09:54:21.289Z,67.95
2023-11-23T09:57:22.989Z,67.72
2023-11-23T10:00:26.215Z,68.30
2023-11-23T10:03:32.600Z,68.04
2023-11-23T10:06:34.439Z,68.03
2023-11-23T10:09:36.200Z,68.29
2023-11-23T10:12:38.097Z,68.51
2023-11-23T10:15:44.393Z,68.68
2023-11-23T10:18:46.208Z,68.56
2023-11-23T10:21:48.053Z,68.56
2023-11-23T10:24:49.973Z,68.89
2023-11-23T10:27:51.752Z,69.24
2023-11-23T10:30:54.754Z,69.07
2023-11-23T10:33:56.505Z,69.87
2023-11-23T10:36:59.410Z,69.30
2023-11-23T10:40:02.673Z,69.72
2023-11-23T10:43:04.610Z,69.91
2023-11-23T10:46:10.443Z,70.15
2023-11-23T10:49:13.830Z,70.28
2023-11-23T10:52:18.242Z,69.88
2023-11-23T10:55:19.888Z,70.72
2023-11-23T10:58:22.608Z,70.58
2023-11-23T11:01:27.255Z,70.94
2023-11-23T11:04:30.123Z,70.76
2023-11-23T11:07:36.306Z,70.64
2023-11-23T11:10:48.071Z,70.40
2023-11-23T11:13:50.193Z,70.30
2023-11-23T11:17:01.194Z,70.31
2023-11-23T11:20:05.731Z,70.13
2023-11-23T11:23:07.397Z,70.88
2023-11-23T11:26:13.252Z,70.76
2023-11-23T11:29:16.600Z,70.16
2023-11-23T11:32:21.648Z,69.78
2023-11-23T11:35:27.444Z,69.68
2023-11-23T11:38:29.267Z,69.77
2023-11-23T11:41:31.262Z,69.24
2023-11-23T11:44:33.412Z,68.94
2023-11-23T11:47:39.989Z,68.81
2023-11-23T11:50:41.695Z,68.73
2023-11-23T11:53:44.699Z,68.42
2023-11-23T11:56:47.476Z,68.66
2023-11-23T11:59:49.140Z,68.22
2023-11-23T12:02:52.240Z,68.88
2023-11-23T12:05:55.180Z,68.90
2023-11-23T12:08:57.174Z,69.46
2023-11-23T12:12:06.077Z,69.41
2023-11-23T12:15:09.222Z,69.58
2023-11-23T12:18:12.360Z,69.22
2023-11-23T12:21:14.776Z,68.73
2023-11-23T12:24:19.488Z,68.49
2023-11-23T12:27:21.257Z,68.27
2023-11-23T12:30:22.930Z,67.51
2023-11-23T12:33:25.955Z,66.92
2023-11-23T12:36:27.701Z,66.91
2023-11-23T12:39:29.460Z,66.53
2023-11-23T12:42:31.257Z,67.42
2023-11-23T12:45:32.984Z,67.34
2023-11-23T12:48:36.148Z,67.69
2023-11-23T12:51:38.019Z,67.45
2023-11-23T12:54:39.821Z,67.56
2023-11-23T12:57:41.662Z,67.28
2023-11-23T13:00:43.453Z,67.26
2023-11-23T13:03:46.587Z,67.74
2023-11-23T13:06:48.409Z,68.30
2023-11-23T13:09:50.364Z,68.81
2023-11-23T13:12:52.093Z,68.69
2023-11-23T13:15:53.942Z,68.85
2023-11-23T13:19:11.224Z,69.35
2023-11-23T13:22:18.630Z,69.27
2023-11-23T13:25:20.289Z,68.88
2023-11-23T13:28:22.091Z,68.88
2023-11-23T13:31:23.779Z,68.87
2023-11-23T13:34:26.929Z,68.57
2023-11-23T13:37:28.663Z,69.28
2023-11-23T13:40:30.314Z,69.61
2023-11-23T13:43:31.965Z,70.53
2023-11-23T13:46:33.897Z,70.53
2023-11-23T13:49:36.982Z,70.75
2023-11-23T13:52:38.878Z,71.11
2023-11-23T13:55:40.552Z,71.31
2023-11-23T13:58:42.643Z,70.58
2023-11-23T14:01:44.397Z,70.92
2023-11-23T14:04:47.602Z,70.61
2023-11-23T14:07:49.271Z,70.56
2023-11-23T14:10:51.005Z,70.25
2023-11-23T14:13:52.663Z,70.52
2023-11-23T14:16:54.367Z,70.83
2023-11-23T14:19:57.431Z,70.45
2023-11-23T14:22:59.076Z,70.67
2023-11-23T14:26:00.760Z,70.60
2023-11-23T14:29:02.448Z,70.59
2023-11-23T14:32:04.456Z,70.48
2023-11-23T14:35:08.234Z,70.39
2023-11-23T14:38:09.949Z,70.56
2023-11-23T14:41:11.613Z,70.65
2023-11-23T14:44:14.455Z,70.36
2023-11-23T14:47:17.657Z,69.99
2023-11-23T14:50:20.832Z,69.35
2023-11-23T14:53:22.637Z,69.42
2023-11-23T14:56:24.314Z,69.20
2023-11-23T14:59:26.036Z,69.59
2023-11-23T15:02:27.964Z,69.67
2023-11-23T15:05:30.970Z,69.01
2023-11-23T15:08:32.636Z,69.16
2023-11-23T15:11:34.347Z,68.64
2023-11-23T15:14:35.998Z,68.72
2023-11-23T15:17:37.698Z,68.57
2023-11-23T15:20:41.056Z,68.73
2023-11-23T15:23:42.692Z,68.60
2023-11-23T15:26:47.259Z,68.83
2023-11-23T15:29:48.936Z,69.11
2023-11-23T15:32:50.607Z,69.30
2023-11-23T15:35:53.634Z,69.00
2023-11-23T15:38:55.280Z,68.82
2023-11-23T15:41:57.190Z,69.72
2023-11-23T15:44:58.844Z,69.99
2023-11-23T15:48:00.581Z,70.13
2023-11-23T15:51:03.856Z,71.52
2023-11-23T15:54:06.103Z,70.77
2023-11-23T15:57:07.800Z,71.12
2023-11-23T16:00:11.008Z,72.02
2023-11-23T16:03:12.799Z,72.24
2023-11-23T16:06:15.860Z,73.60
2023-11-23T16:09:17.551Z,74.74
2023-11-23T16:12:19.333Z,74.67
2023-11-23T16:15:21.069Z,75.06
2023-11-23T16:18:22.888Z,75.90
2023-11-23T16:21:25.933Z,75.02
2023-11-23T16:24:27.659Z,74.97
2023-11-23T16:27:29.441Z,74.39
2023-11-23T16:30:31.176Z,74.38
2023-11-23T16:33:32.883Z,73.94
2023-11-23T16:36:39.717Z,75.20
2023-11-23T16:39:42.221Z,75.01
2023-11-23T16:42:43.968Z,74.55
2023-11-23T16:45:45.951Z,74.59
2023-11-23T16:48:47.722Z,74.00
2023-11-23T16:51:50.891Z,74.65
2023-11-23T16:54:52.617Z,74.10
2023-11-23T16:57:54.323Z,74.61
2023-11-23T17:00:55.958Z,74.37
2023-11-23T17:03:57.713Z,74.13
2023-11-23T17:07:00.785Z,75.04
2023-11-23T17:10:02.589Z,74.54
2023-11-23T17:13:04.371Z,75.42
2023-11-23T17:16:06.880Z,76.09
2023-11-23T17:19:08.578Z,75.97
2023-11-23T17:22:11.668Z,75.95
2023-11-23T17:25:13.285Z,75.80
2023-11-23T17:28:15.034Z,76.14
2023-11-23T17:31:16.685Z,75.99
2023-11-23T17:34:18.405Z,76.54
2023-11-23T17:37:21.414Z,76.30
2023-11-23T17:40:23.051Z,75.84
2023-11-23T17:43:24.753Z,75.56
2023-11-23T17:46:27.698Z,75.60
2023-11-23T17:49:29.382Z,75.97
2023-11-23T17:52:32.400Z,75.96
2023-11-23T17:55:34.046Z,76.18
2023-11-23T17:58:35.733Z,75.94
2023-11-23T18:01:37.484Z,76.21
2023-11-23T18:04:39.170Z,75.23
2023-11-23T18:07:42.186Z,75.82
2023-11-23T18:10:44.064Z,75.73
2023-11-23T18:13:46.796Z,76.34
2023-11-23T18:16:48.835Z,76.60
2023-11-23T18:19:50.731Z,76.41
2023-11-23T18:22:53.786Z,76.16
2023-11-23T18:25:55.570Z,76.24
2023-11-23T18:28:58.004Z,77.52
2023-11-23T18:32:00.772Z,77.37
2023-11-23T18:35:03.375Z,77.93
2023-11-23T18:38:07.282Z,78.03
2023-11-23T18:41:09.151Z,77.80
2023-11-23T18:44:10.891Z,78.13
2023-11-23T18:47:12.741Z,78.07
2023-11-23T18:50:14.629Z,77.72
2023-11-23T18:53:17.701Z,78.29
2023-11-23T18:56:19.754Z,77.81
2023-11-23T18:59:21.541Z,77.55
2023-11-23T19:02:23.461Z,77.49
2023-11-23T19:05:25.326Z,77.08
2023-11-23T19:08:28.475Z,77.28
2023-11-23T19:11:30.447Z,77.68
2023-11-23T19:14:32.501Z,77.36
2023-11-23T19:17:34.688Z,77.45
2023-11-23T19:20:37.696Z,77.35
2023-11-23T19:23:43.453Z,76.76
2023-11-23T19:26:46.394Z,76.33
2023-11-23T19:29:49.059Z,76.45
2023-11-23T19:32:51.428Z,76.53
2023-11-23T19:35:53.840Z,76.25
2023-11-23T19:38:57.949Z,76.37
2023-11-23T19:42:03.362Z,76.47
2023-11-23T19:45:06.901Z,76.73
2023-11-23T19:48:10.479Z,76.76
2023-11-23T19:51:20.086Z,76.75
2023-11-23T19:54:23.963Z,76.96
2023-11-23T19:57:26.603Z,76.43
2023-11-23T20:00:28.926Z,76.98
2023-11-23T20:03:31.457Z,76.81
2023-11-23T20:06:34.062Z,76.88
2023-11-23T20:09:38.087Z,77.06
2023-11-23T20:12:40.886Z,76.73
2023-11-23T20:15:43.436Z,76.83
2023-11-23T20:18:45.638Z,76.53
2023-11-23T20:21:47.776Z,76.21
2023-11-23T20:24:50.972Z,76.04
2023-11-23T20:27:52.828Z,76.26
2023-11-23T20:30:54.986Z,77.37
2023-11-23T20:33:57.101Z,76.56
2023-11-23T20:36:59.119Z,76.56
2023-11-23T20:40:02.161Z,76.42
2023-11-23T20:43:03.816Z,78.04
2023-11-23T20:46:05.886Z,78.74
2023-11-23T20:49:07.672Z,77.87
2023-11-23T20:52:09.311Z,78.25
2023-11-23T20:55:16.499Z,78.99
2023-11-23T20:58:18.951Z,79.02
2023-11-23T21:01:21.625Z,78.70
2023-11-23T21:04:27.854Z,77.90
2023-11-23T21:07:32.603Z,77.39
2023-11-23T21:10:36.343Z,77.49
2023-11-23T21:13:38.022Z,78.71
2023-11-23T21:16:39.652Z,77.99
2023-11-23T21:19:41.294Z,77.83
2023-11-23T21:22:43.012Z,77.63
2023-11-23T21:25:46.027Z,77.44
2023-11-23T21:28:47.667Z,77.50
2023-11-23T21:31:49.358Z,77.33
2023-11-23T21:34:51.034Z,77.54
2023-11-23T21:37:52.830Z,77.84
2023-11-23T21:40:55.853Z,77.76
2023-11-23T21:43:57.530Z,78.57
2023-11-23T21:46:59.272Z,77.87
2023-11-23T21:50:00.980Z,78.35
2023-11-23T21:53:02.627Z,78.25
2023-11-23T21:56:06.270Z,79.81
2023-11-23T21:59:07.945Z,80.10
2023-11-23T22:02:09.803Z,80.50
2023-11-23T22:05:11.651Z,79.21
2023-11-23T22:08:13.314Z,78.32
2023-11-23T22:11:22.681Z,78.89
2023-11-23T22:14:25.981Z,78.49
2023-11-23T22:17:28.307Z,78.78
2023-11-23T22:20:30.451Z,78.84
2023-11-23T22:23:32.708Z,78.34
2023-11-23T22:26:35.612Z,78.49
2023-11-23T22:29:38.854Z,78.95
2023-11-23T22:32:43.313Z,78.23
2023-11-23T22:35:45.252Z,79.85
2023-11-23T22:38:47.685Z,79.33
2023-11-23T22:41:49.826Z,79.31
2023-11-23T22:44:53.525Z,78.88
2023-11-23T22:47:55.207Z,78.84
2023-11-23T22:50:56.863Z,79.85
2023-11-23T22:53:58.664Z,80.05
2023-11-23T22:57:00.339Z,79.83
2023-11-23T23:00:04.020Z,79.43
2023-11-23T23:03:05.984Z,80.82
2023-11-23T23:06:08.157Z,80.25
2023-11-23T23:09:10.076Z,80.57
2023-11-23T23:12:11.782Z,80.91
2023-11-23T23:15:15.046Z,81.87
2023-11-23T23:18:16.754Z,82.60
2023-11-23T23:21:18.441Z,83.38
2023-11-23T23:24:20.178Z,84.08
2023-11-23T23:27:21.901Z,83.91
2023-11-23T23:30:25.872Z,83.14
2023-11-23T23:33:27.649Z,82.30
2023-11-23T23:36:29.431Z,81.26
2023-11-23T23:39:31.124Z,80.24
2023-11-23T23:42:33.092Z,79.94
2023-11-23T23:45:36.134Z,79.51
2023-11-23T23:48:37.833Z,79.87
2023-11-23T23:51:39.545Z,79.41
2023-11-23T23:54:41.355Z,79.27
2023-11-23T23:57:43.086Z,79.67
